Terminal Aerodrome Forecast
Issued by NWS Houston/Galveston TX

Home | Current Version | Previous Version | Text Only | Print | Product List | Glossary On
Versions: 1 2 3 4 5 6 7 8 9 10 11 12 13 14 15 16 17 18 19 20 21 22 23 24 25 26 27 28 29 30 31 32 33 34 35 36 37 38 39 40 41 42 43 44 45 46 47 48 49 50
000
FTUS44 KHGX 251953 AAC
TAFHOU
TAF AMD
KHOU 251953Z 2520/2618 VRB09KT P6SM VCTS SCT050CB
      TEMPO 2520/2521 VRB05G22KT 1/2SM +TSRA BKN013 OVC035CB
     FM260200 VRB04KT P6SM FEW050 BKN250
     FM260600 VRB02KT P6SM SCT250
     FM261100 VRB03KT P6SM VCSH SCT025
     FM261600 VRB05KT P6SM VCTS SCT030CB BKN250=

USA.gov is the U.S. government's official web portal to all federal, state and local government web resources and services.